Terminal Aerodrome Forecast
Issued by NWS

Home | Current Version | Previous Version | Text Only | Print | Product List | Glossary On
Versions: 1 2 3 4 5 6 7 8 9 10 11 12 13
000
FTUS44 KBMX 221720
TAFEET
TAF
KEET 221720Z 2218/2318 14012G20KT P6SM SCT025 BKN050
     FM222000 13012G20KT P6SM VCSH OVC040
     FM230000 14010G18KT 5SM -RA OVC035
     FM230400 15008G15KT 3SM TSRA OVC020CB
     FM230900 23007KT 5SM -RA VCTS OVC008CB
     FM231200 28008KT P6SM VCSH OVC008=

USA.gov is the U.S. government's official web portal to all federal, state and local government web resources and services.